Time;durP1;ratioP1;P1;durP2;ratioP2;P2;SDS_P1;SDS_P2;PMS_P1;PMS_P2;Temp;Humidity;BMP_temperature;BMP_pressure;BME280_temperature;BME280_humidity;BME280_pressure;Samples;Min_cycle;Max_cycle;Signal;HPM_P1;HPM_P2
2022/04/15 00:02:17;;;;;;;1.17;1.17;;;10.80;99.90;;;;;;5082019;28;20230;-59
2022/04/15 00:04:42;;;;;;;2.27;2.07;;;10.80;99.90;;;;;;5061385;28;20625;-60
2022/04/15 00:07:08;;;;;;;1.70;1.70;;;10.70;99.90;;;;;;5083021;28;20211;-60
2022/04/15 00:09:35;;;;;;;7.40;5.20;;;10.70;99.90;;;;;;5084195;28;20251;-59
2022/04/15 00:12:06;;;;;;;0.20;0.20;;;10.60;99.90;;;;;;5083099;28;20201;-59
2022/04/15 00:14:34;;;;;;;0.97;0.97;;;10.70;99.90;;;;;;5079910;28;20228;-59
2022/04/15 00:16:59;;;;;;;1.30;1.30;;;10.50;99.90;;;;;;5066256;28;20185;-60
2022/04/15 00:19:24;;;;;;;3.27;2.37;;;10.50;99.90;;;;;;5081242;28;20757;-61
2022/04/15 00:21:50;;;;;;;0.10;0.10;;;10.50;99.90;;;;;;5085351;28;20192;-60
2022/04/15 00:24:16;;;;;;;0.20;0.20;;;10.50;99.90;;;;;;5082842;28;20208;-59
2022/04/15 00:26:42;;;;;;;0.40;0.40;;;10.50;99.90;;;;;;5084436;28;20244;-60
2022/04/15 00:29:07;;;;;;;0.80;0.80;;;10.50;99.90;;;;;;5082689;28;20532;-59
2022/04/15 00:31:34;;;;;;;2.27;2.13;;;10.60;99.90;;;;;;5084589;28;20687;-63
2022/04/15 00:34:00;;;;;;;0.20;0.20;;;10.60;99.90;;;;;;5082527;28;20189;-60
2022/04/15 00:36:26;;;;;;;5.27;4.80;;;10.70;99.90;;;;;;5084939;28;20192;-59
2022/04/15 00:38:51;;;;;;;2.47;2.37;;;10.70;99.90;;;;;;5076985;28;20189;-61
2022/04/15 00:41:17;;;;;;;2.40;2.30;;;10.70;99.90;;;;;;5085145;28;20185;-60
2022/04/15 00:43:45;;;;;;;0.87;0.87;;;10.70;99.90;;;;;;5084412;28;20205;-61
2022/04/15 00:46:11;;;;;;;0.10;0.10;;;10.70;99.90;;;;;;5082521;28;20201;-60
2022/04/15 00:48:37;;;;;;;0.70;0.70;;;10.70;99.90;;;;;;5084179;28;20197;-59
2022/04/15 00:51:04;;;;;;;1.30;1.30;;;10.70;99.90;;;;;;5082496;28;20233;-60
2022/04/15 00:53:30;;;;;;;4.47;4.07;;;10.70;99.90;;;;;;5084375;28;20194;-61
2022/04/15 00:56:03;;;;;;;0.10;0.10;;;10.70;99.90;;;;;;5078162;28;20204;-61
2022/04/15 00:58:31;;;;;;;1.83;1.77;;;10.70;99.90;;;;;;5080390;28;20177;-60
2022/04/15 01:00:58;;;;;;;1.50;1.43;;;10.70;99.90;;;;;;5082389;28;20203;-61
2022/04/15 01:03:24;;;;;;;5.47;5.07;;;10.70;99.90;;;;;;5086469;28;20200;-60
2022/04/15 01:05:54;;;;;;;5.67;4.93;;;10.70;99.90;;;;;;5085876;28;20215;-64
2022/04/15 01:08:23;;;;;;;4.33;3.03;;;10.60;99.90;;;;;;5087018;28;20685;-60
2022/04/15 01:10:52;;;;;;;4.53;3.47;;;10.60;99.90;;;;;;5085407;28;20573;-61
2022/04/15 01:13:20;;;;;;;1.53;1.47;;;10.60;99.90;;;;;;5086746;28;20204;-60
2022/04/15 01:15:46;;;;;;;6.93;4.67;;;10.50;99.90;;;;;;5082008;28;20621;-60
2022/04/15 01:18:12;;;;;;;3.00;2.60;;;10.50;99.90;;;;;;5087028;28;20177;-59
2022/04/15 01:20:39;;;;;;;0.40;0.40;;;10.40;99.90;;;;;;5067319;28;20228;-60
2022/04/15 01:23:11;;;;;;;2.50;2.07;;;10.40;99.90;;;;;;5084728;28;20184;-59
2022/04/15 01:25:38;;;;;;;0.20;0.20;;;10.30;99.90;;;;;;5084353;28;20710;-59
2022/04/15 01:28:04;;;;;;;3.17;2.97;;;10.20;99.90;;;;;;5083983;28;20634;-61
2022/04/15 01:30:30;;;;;;;2.47;2.33;;;10.20;99.90;;;;;;5084617;28;20182;-60
2022/04/15 01:32:56;;;;;;;0.77;0.77;;;10.20;99.90;;;;;;5087275;28;20220;-60
2022/04/15 01:35:22;;;;;;;1.07;0.97;;;10.10;99.90;;;;;;5084009;28;20546;-60
2022/04/15 01:37:49;;;;;;;4.67;4.27;;;10.00;99.90;;;;;;5084423;28;20204;-61
2022/04/15 01:40:16;;;;;;;2.10;0.90;;;9.90;99.90;;;;;;5086297;28;20247;-61
2022/04/15 01:42:43;;;;;;;1.97;1.93;;;9.80;99.90;;;;;;5084623;28;20206;-61
2022/04/15 01:45:10;;;;;;;1.03;1.03;;;9.80;99.90;;;;;;5084779;28;20207;-61
2022/04/15 01:47:36;;;;;;;5.10;2.30;;;9.70;99.90;;;;;;5084500;28;20195;-61
2022/04/15 01:50:07;;;;;;;3.30;3.00;;;9.70;99.90;;;;;;5067777;28;20196;-61
2022/04/15 01:52:33;;;;;;;2.23;2.03;;;9.60;99.90;;;;;;5083960;28;20199;-61
2022/04/15 01:54:59;;;;;;;0.27;0.27;;;9.60;99.90;;;;;;5086222;28;20195;-62
2022/04/15 01:57:25;;;;;;;0.10;0.10;;;9.50;99.90;;;;;;5084006;28;20337;-61
2022/04/15 01:59:50;;;;;;;1.50;1.43;;;9.50;99.90;;;;;;5085759;28;20199;-61
2022/04/15 02:02:16;;;;;;;3.10;2.90;;;9.30;99.90;;;;;;5083834;28;20210;-60
2022/04/15 02:04:42;;;;;;;6.23;5.60;;;9.30;99.90;;;;;;5083694;28;20209;-60
2022/04/15 02:07:07;;;;;;;0.40;0.40;;;9.10;99.90;;;;;;5083388;28;20212;-60
2022/04/15 02:09:33;;;;;;;8.30;4.27;;;9.10;99.90;;;;;;5084829;28;20191;-60
2022/04/15 02:11:59;;;;;;;5.50;3.27;;;9.00;99.90;;;;;;5083442;28;20361;-61
2022/04/15 02:14:25;;;;;;;1.30;1.27;;;9.00;99.90;;;;;;5085221;28;20198;-61
2022/04/15 02:16:54;;;;;;;1.40;1.10;;;9.00;99.90;;;;;;5084623;28;20214;-60
2022/04/15 02:19:23;;;;;;;0.70;0.70;;;9.00;99.90;;;;;;5086956;28;20204;-61
2022/04/15 02:21:49;;;;;;;2.33;1.83;;;8.90;99.90;;;;;;5083926;28;20285;-59
2022/04/15 02:24:15;;;;;;;1.03;0.97;;;8.90;99.90;;;;;;5082821;28;20974;-60
2022/04/15 02:26:42;;;;;;;0.20;0.20;;;8.90;99.90;;;;;;5084792;28;20253;-60
2022/04/15 02:29:08;;;;;;;1.90;1.43;;;8.80;99.90;;;;;;5084808;28;20200;-60
2022/04/15 02:31:33;;;;;;;1.80;1.70;;;8.80;99.90;;;;;;5085790;28;20208;-59
2022/04/15 02:33:59;;;;;;;1.27;1.27;;;8.70;99.90;;;;;;5086711;28;20547;-59
2022/04/15 02:36:24;;;;;;;0.60;0.60;;;8.60;99.90;;;;;;5086634;28;20194;-60
2022/04/15 02:38:50;;;;;;;3.90;3.60;;;8.60;99.90;;;;;;5083872;28;20233;-61
2022/04/15 02:41:16;;;;;;;5.33;4.60;;;8.50;99.90;;;;;;5086669;28;20721;-60
2022/04/15 02:43:41;;;;;;;0.77;0.77;;;8.50;99.90;;;;;;5084445;28;20226;-60
2022/04/15 02:46:09;;;;;;;1.40;1.30;;;8.50;99.90;;;;;;5082226;28;20641;-60
2022/04/15 02:48:35;;;;;;;7.03;3.67;;;8.50;99.90;;;;;;5084882;28;20199;-60
2022/04/15 02:51:01;;;;;;;3.00;2.27;;;8.60;99.90;;;;;;5077393;28;20742;-60
2022/04/15 02:53:27;;;;;;;2.80;2.10;;;8.60;99.90;;;;;;5084193;28;20193;-61
2022/04/15 02:55:53;;;;;;;0.40;0.40;;;8.60;99.90;;;;;;5086259;28;20203;-60
2022/04/15 02:58:19;;;;;;;0.87;0.87;;;8.60;99.90;;;;;;5084429;28;20191;-59
2022/04/15 03:00:45;;;;;;;1.40;1.37;;;8.60;99.90;;;;;;5085820;28;20201;-61
2022/04/15 03:03:11;;;;;;;0.43;0.43;;;8.60;99.90;;;;;;5084932;28;20231;-60
2022/04/15 03:05:37;;;;;;;12.30;5.13;;;8.60;99.90;;;;;;5085816;28;20320;-59
2022/04/15 03:08:03;;;;;;;1.47;1.43;;;8.70;99.90;;;;;;5084226;28;20202;-59
2022/04/15 03:10:29;;;;;;;1.77;1.67;;;8.70;99.90;;;;;;5086427;28;20233;-59
2022/04/15 03:12:54;;;;;;;2.30;1.93;;;8.60;99.90;;;;;;5083125;28;20208;-60
2022/04/15 03:15:20;;;;;;;3.03;1.87;;;8.60;99.90;;;;;;5067608;28;20687;-60
2022/04/15 03:17:45;;;;;;;2.47;2.27;;;8.60;99.90;;;;;;5078346;28;20275;-60
2022/04/15 03:20:13;;;;;;;6.40;5.47;;;8.60;99.90;;;;;;5067314;28;20520;-60
2022/04/15 03:22:40;;;;;;;10.37;3.97;;;8.60;99.90;;;;;;5083488;28;20207;-60
2022/04/15 03:25:08;;;;;;;5.00;2.23;;;8.60;99.90;;;;;;5085065;28;20219;-60
2022/04/15 03:27:34;;;;;;;0.60;0.60;;;8.60;99.90;;;;;;5083570;28;20218;-58
2022/04/15 03:30:00;;;;;;;1.63;1.53;;;8.60;99.90;;;;;;5085396;28;20186;-59
2022/04/15 03:32:25;;;;;;;2.23;2.13;;;8.60;99.90;;;;;;5083409;28;20291;-59
2022/04/15 03:34:52;;;;;;;5.60;4.10;;;8.60;99.90;;;;;;5085364;28;20297;-62
2022/04/15 03:37:18;;;;;;;8.13;4.60;;;8.80;99.90;;;;;;5083490;28;20210;-61
2022/04/15 03:39:43;;;;;;;7.87;5.83;;;9.00;99.90;;;;;;5084328;28;20237;-61
2022/04/15 03:42:09;;;;;;;6.23;5.27;;;9.10;99.90;;;;;;5082351;28;20263;-61
2022/04/15 03:44:36;;;;;;;2.70;2.47;;;9.10;99.90;;;;;;5085200;28;20210;-61
2022/04/15 03:47:02;;;;;;;1.43;1.43;;;9.30;99.90;;;;;;5083332;28;20198;-61
2022/04/15 03:49:27;;;;;;;0.10;0.10;;;9.30;99.90;;;;;;5076022;28;20672;-61
2022/04/15 03:51:53;;;;;;;4.60;1.97;;;9.30;99.90;;;;;;5083198;28;20191;-60
2022/04/15 03:54:18;;;;;;;6.40;5.33;;;9.40;99.90;;;;;;5088443;28;20183;-60
2022/04/15 03:56:46;;;;;;;5.73;5.20;;;9.30;99.90;;;;;;5090095;28;20230;-61
2022/04/15 03:59:12;;;;;;;6.93;6.23;;;9.30;99.90;;;;;;5090813;28;20666;-60
2022/04/15 04:01:37;;;;;;;2.90;2.70;;;9.20;99.90;;;;;;5089192;28;20200;-61
2022/04/15 04:04:03;;;;;;;7.10;5.73;;;9.10;99.90;;;;;;5094082;28;20195;-60
2022/04/15 04:06:29;;;;;;;2.27;2.17;;;9.10;99.90;;;;;;5091187;28;20645;-61
2022/04/15 04:08:54;;;;;;;2.87;2.67;;;9.10;99.90;;;;;;5093953;28;20209;-60
2022/04/15 04:11:21;;;;;;;4.10;3.80;;;9.10;99.90;;;;;;5090831;28;20190;-66
2022/04/15 04:13:46;;;;;;;4.37;3.97;;;9.10;99.90;;;;;;5092079;28;20213;-58
2022/04/15 04:16:12;;;;;;;4.87;4.53;;;9.10;99.90;;;;;;5091734;28;20339;-58
2022/04/15 04:18:41;;;;;;;2.13;2.00;;;9.10;99.90;;;;;;5092658;28;20194;-57
2022/04/15 04:21:07;;;;;;;0.60;0.60;;;9.10;99.90;;;;;;5090525;28;20193;-58
2022/04/15 04:23:34;;;;;;;0.30;0.30;;;9.10;99.90;;;;;;5091818;28;20281;-57
2022/04/15 04:26:00;;;;;;;2.70;2.50;;;9.10;99.90;;;;;;5086186;28;20229;-58
2022/04/15 04:28:25;;;;;;;0.40;0.40;;;9.20;99.90;;;;;;5083266;28;20287;-57
2022/04/15 04:30:52;;;;;;;4.23;3.83;;;9.20;99.90;;;;;;5084241;28;20722;-58
2022/04/15 04:33:18;;;;;;;2.33;1.97;;;9.30;99.90;;;;;;5082707;28;20198;-57
2022/04/15 04:35:43;;;;;;;4.03;3.73;;;9.20;99.90;;;;;;5084244;28;20206;-58
2022/04/15 04:38:09;;;;;;;2.93;2.73;;;9.20;99.90;;;;;;5087172;28;20197;-57
2022/04/15 04:40:35;;;;;;;2.93;2.73;;;9.20;99.90;;;;;;5088506;28;20658;-58
2022/04/15 04:43:02;;;;;;;2.53;2.43;;;9.10;99.90;;;;;;5085006;28;20255;-57
2022/04/15 04:45:28;;;;;;;4.93;4.57;;;9.10;99.90;;;;;;5088130;28;20198;-58
2022/04/15 04:47:54;;;;;;;2.93;2.50;;;9.10;99.90;;;;;;5086470;28;20217;-58
2022/04/15 04:50:20;;;;;;;0.40;0.40;;;9.00;99.90;;;;;;5088184;28;20235;-58
2022/04/15 04:52:48;;;;;;;4.20;3.80;;;9.10;99.90;;;;;;5086414;28;20197;-59
2022/04/15 04:55:14;;;;;;;2.10;2.00;;;9.10;99.90;;;;;;5088185;28;20216;-59
2022/04/15 04:57:42;;;;;;;2.70;1.60;;;9.10;99.90;;;;;;5084584;28;20277;-58
2022/04/15 05:00:09;;;;;;;3.97;3.63;;;9.20;99.90;;;;;;5087937;28;20196;-59
2022/04/15 05:02:35;;;;;;;12.57;5.73;;;9.20;99.90;;;;;;5085981;28;20958;-57
2022/04/15 05:05:01;;;;;;;2.80;2.60;;;9.20;99.90;;;;;;5088210;28;20218;-57
2022/04/15 05:07:26;;;;;;;3.43;3.10;;;9.10;99.90;;;;;;5086000;28;20196;-57
2022/04/15 05:09:52;;;;;;;2.57;2.37;;;9.10;99.90;;;;;;5088393;28;20271;-57
2022/04/15 05:12:17;;;;;;;3.80;3.60;;;9.10;99.90;;;;;;5086174;28;20201;-58
2022/04/15 05:14:43;;;;;;;3.77;3.17;;;9.10;99.90;;;;;;5088584;28;20201;-57
2022/04/15 05:17:09;;;;;;;1.87;1.77;;;9.10;99.90;;;;;;5086040;28;20201;-58
2022/04/15 05:19:34;;;;;;;2.90;2.70;;;9.10;99.90;;;;;;5083039;28;20255;-57
2022/04/15 05:22:00;;;;;;;6.77;4.47;;;9.10;99.90;;;;;;5076469;28;20202;-58
2022/04/15 05:24:25;;;;;;;3.23;2.93;;;9.00;99.90;;;;;;5088103;28;20672;-57
2022/04/15 05:26:51;;;;;;;4.13;2.67;;;9.00;99.90;;;;;;5085736;28;20630;-57
2022/04/15 05:29:16;;;;;;;0.80;0.80;;;9.10;99.90;;;;;;5088255;28;20645;-57
2022/04/15 05:31:42;;;;;;;4.37;3.97;;;9.10;99.90;;;;;;5085819;28;20703;-57
2022/04/15 05:34:08;;;;;;;4.70;3.30;;;9.10;99.90;;;;;;5088266;28;20178;-57
2022/04/15 05:36:34;;;;;;;3.00;2.80;;;9.00;99.90;;;;;;5085668;28;20201;-57
2022/04/15 05:38:59;;;;;;;2.47;2.30;;;9.10;99.90;;;;;;5087838;28;20201;-57
2022/04/15 05:41:25;;;;;;;0.40;0.40;;;9.10;99.90;;;;;;5087544;28;20199;-58
2022/04/15 05:43:51;;;;;;;1.97;0.73;;;9.10;99.90;;;;;;5085732;28;20703;-57
2022/04/15 05:46:16;;;;;;;4.17;3.83;;;9.20;99.90;;;;;;5087693;28;20678;-59
2022/04/15 05:48:42;;;;;;;2.47;2.33;;;9.30;99.90;;;;;;5085850;28;20561;-58
2022/04/15 05:51:08;;;;;;;3.20;3.03;;;9.30;99.90;;;;;;5087397;28;20669;-59
2022/04/15 05:53:33;;;;;;;3.50;3.17;;;9.40;99.90;;;;;;5085546;28;20204;-58
2022/04/15 05:55:59;;;;;;;4.40;4.00;;;9.30;99.90;;;;;;5087350;28;20202;-58
2022/04/15 05:58:26;;;;;;;3.83;1.80;;;9.20;99.90;;;;;;5085522;28;20227;-57
2022/04/15 06:00:52;;;;;;;1.97;1.87;;;9.20;99.90;;;;;;5087805;28;20205;-58
2022/04/15 06:03:20;;;;;;;3.73;3.43;;;9.20;99.90;;;;;;5085434;28;20206;-58
2022/04/15 06:05:49;;;;;;;6.00;2.77;;;9.10;99.90;;;;;;5087048;28;20233;-58
2022/04/15 06:08:15;;;;;;;0.20;0.20;;;9.20;99.90;;;;;;5085636;28;20211;-58
2022/04/15 06:10:41;;;;;;;6.57;4.90;;;9.30;99.90;;;;;;5087200;28;20256;-58
2022/04/15 06:13:10;;;;;;;2.77;1.83;;;9.40;99.90;;;;;;5085141;28;20244;-58
2022/04/15 06:15:41;;;;;;;3.90;3.60;;;9.40;99.90;;;;;;5067193;28;20195;-57
2022/04/15 06:18:07;;;;;;;8.03;3.97;;;9.40;99.90;;;;;;5083875;28;20208;-58
2022/04/15 06:20:32;;;;;;;3.13;2.90;;;9.40;99.90;;;;;;5086594;28;20239;-57
2022/04/15 06:22:58;;;;;;;6.30;5.33;;;9.40;99.90;;;;;;5085456;28;20230;-56
2022/04/15 06:25:24;;;;;;;2.87;2.67;;;9.40;99.90;;;;;;5086230;28;20218;-57
2022/04/15 06:27:51;;;;;;;5.87;5.13;;;9.30;99.90;;;;;;5085338;28;20293;-59
2022/04/15 06:30:19;;;;;;;3.93;3.63;;;9.30;99.90;;;;;;5087015;28;20687;-57
2022/04/15 06:32:44;;;;;;;0.87;0.87;;;9.30;99.90;;;;;;5075722;28;20230;-58
2022/04/15 06:35:10;;;;;;;2.83;2.63;;;9.30;99.90;;;;;;5086641;28;20265;-57
2022/04/15 06:37:35;;;;;;;4.33;3.90;;;9.30;99.90;;;;;;5084712;28;20625;-57
2022/04/15 06:40:01;;;;;;;6.03;2.53;;;9.40;99.90;;;;;;5086853;28;20194;-57
2022/04/15 06:42:28;;;;;;;5.93;5.37;;;9.50;99.90;;;;;;5074306;28;20199;-57
2022/04/15 06:44:54;;;;;;;3.10;2.87;;;9.50;99.90;;;;;;5086614;28;20973;-57
2022/04/15 06:47:19;;;;;;;3.20;2.90;;;9.40;99.90;;;;;;5084655;28;20197;-57
2022/04/15 06:49:46;;;;;;;7.20;6.50;;;9.30;99.90;;;;;;5086892;28;20624;-57
2022/04/15 06:52:12;;;;;;;4.20;3.80;;;9.40;99.90;;;;;;5084498;28;20199;-57
2022/04/15 06:54:38;;;;;;;2.47;1.27;;;9.40;99.90;;;;;;5086890;28;20209;-57
2022/04/15 06:57:04;;;;;;;4.03;3.63;;;9.50;99.90;;;;;;5079356;28;20669;-56
2022/04/15 06:59:29;;;;;;;6.47;5.43;;;9.50;99.90;;;;;;5086086;28;20198;-57
2022/04/15 07:01:56;;;;;;;2.00;1.90;;;9.50;99.90;;;;;;5084333;28;20207;-56
2022/04/15 07:04:23;;;;;;;5.13;2.27;;;9.40;99.90;;;;;;5086462;28;20696;-57
2022/04/15 07:06:48;;;;;;;2.40;2.17;;;9.50;99.90;;;;;;5084417;28;20202;-57
2022/04/15 07:09:14;;;;;;;2.20;2.10;;;9.60;99.90;;;;;;5086988;28;20597;-58
2022/04/15 07:11:39;;;;;;;1.90;1.00;;;9.50;99.90;;;;;;5084094;28;20271;-57
2022/04/15 07:14:05;;;;;;;3.83;3.07;;;9.60;99.90;;;;;;5086357;28;20182;-58
2022/04/15 07:16:31;;;;;;;5.20;3.77;;;9.60;99.90;;;;;;5083888;28;20644;-58
2022/04/15 07:18:57;;;;;;;2.47;2.33;;;9.60;99.90;;;;;;5086272;28;20553;-58
2022/04/15 07:21:22;;;;;;;3.27;3.07;;;9.70;99.90;;;;;;5086010;28;20199;-58
2022/04/15 07:23:48;;;;;;;4.23;3.93;;;9.80;99.90;;;;;;5084361;28;20204;-57
2022/04/15 07:26:14;;;;;;;4.73;2.17;;;9.60;99.90;;;;;;5085291;28;20230;-57
2022/04/15 07:28:39;;;;;;;3.27;3.03;;;9.60;99.90;;;;;;5083929;28;20299;-57
2022/04/15 07:31:05;;;;;;;3.87;3.20;;;9.50;99.90;;;;;;5085235;28;20198;-57
2022/04/15 07:33:30;;;;;;;3.63;2.87;;;9.50;99.90;;;;;;5084055;28;20198;-57
2022/04/15 07:35:56;;;;;;;3.30;2.10;;;9.50;99.90;;;;;;5085685;28;20645;-56
2022/04/15 07:38:22;;;;;;;2.33;2.20;;;9.50;99.90;;;;;;5083958;28;20677;-58
2022/04/15 07:40:48;;;;;;;10.80;4.37;;;9.50;99.90;;;;;;5085521;28;20199;-58
2022/04/15 07:43:14;;;;;;;17.27;3.30;;;9.60;99.90;;;;;;5083639;28;20705;-58
2022/04/15 07:45:40;;;;;;;3.00;2.87;;;9.60;99.90;;;;;;5084757;28;20218;-58
2022/04/15 07:48:06;;;;;;;4.67;3.73;;;9.60;99.90;;;;;;5082936;28;20210;-58
2022/04/15 07:50:31;;;;;;;2.30;1.40;;;9.60;99.90;;;;;;5084665;28;20336;-58
2022/04/15 07:52:59;;;;;;;2.83;1.97;;;9.60;99.90;;;;;;5083413;28;20612;-58
2022/04/15 07:55:26;;;;;;;2.87;2.67;;;9.60;99.90;;;;;;5083044;28;20629;-58
2022/04/15 07:57:51;;;;;;;3.73;3.43;;;9.50;99.90;;;;;;5083503;28;20207;-58
2022/04/15 08:00:17;;;;;;;14.57;5.40;;;9.40;99.90;;;;;;5081933;28;20272;-58
2022/04/15 08:02:43;;;;;;;2.67;2.57;;;9.40;99.90;;;;;;5083511;28;20202;-58
2022/04/15 08:05:09;;;;;;;2.97;2.63;;;9.40;99.90;;;;;;5083502;28;20220;-58
2022/04/15 08:07:34;;;;;;;3.43;3.23;;;9.40;99.90;;;;;;5080066;28;20218;-58
2022/04/15 08:10:01;;;;;;;0.80;0.80;;;9.30;99.90;;;;;;5070362;28;20203;-57
2022/04/15 08:12:26;;;;;;;7.00;4.30;;;9.40;99.90;;;;;;5084831;28;20187;-57
2022/04/15 08:14:52;;;;;;;2.53;2.33;;;9.40;99.90;;;;;;5083287;28;20206;-57
2022/04/15 08:17:18;;;;;;;4.93;2.67;;;9.40;99.90;;;;;;5084945;28;20531;-57
2022/04/15 08:19:43;;;;;;;5.13;2.77;;;9.40;99.90;;;;;;5082843;28;20240;-57
2022/04/15 08:22:09;;;;;;;3.20;2.67;;;9.50;99.90;;;;;;5085053;28;20212;-57
2022/04/15 08:24:42;;;;;;;0.97;0.97;;;9.60;99.90;;;;;;5066399;28;20214;-57
2022/04/15 08:27:09;;;;;;;11.13;3.13;;;9.60;99.90;;;;;;5084591;28;20234;-58
2022/04/15 08:29:38;;;;;;;2.83;2.60;;;9.50;99.90;;;;;;5082317;28;20666;-58
2022/04/15 08:32:08;;;;;;;11.50;3.33;;;9.50;99.90;;;;;;5084497;28;20183;-57
2022/04/15 08:34:34;;;;;;;2.10;0.77;;;9.50;99.90;;;;;;5082015;28;20213;-57
2022/04/15 08:37:00;;;;;;;7.47;5.53;;;9.50;99.90;;;;;;5084024;28;20198;-57
2022/04/15 08:39:25;;;;;;;4.10;3.80;;;9.50;99.90;;;;;;5081883;28;20194;-57
2022/04/15 08:41:53;;;;;;;2.87;2.53;;;9.50;99.90;;;;;;5084645;28;20228;-57
2022/04/15 08:44:21;;;;;;;4.23;3.83;;;9.50;99.90;;;;;;5081988;28;20245;-57
2022/04/15 08:46:48;;;;;;;0.67;0.67;;;9.60;99.90;;;;;;5084379;28;20250;-58
2022/04/15 08:49:14;;;;;;;4.07;2.50;;;9.60;99.90;;;;;;5082531;28;20190;-58
2022/04/15 08:51:40;;;;;;;1.73;1.63;;;9.60;99.90;;;;;;5084496;28;20187;-58
2022/04/15 08:54:07;;;;;;;5.40;5.00;;;9.60;99.90;;;;;;5084309;28;20197;-57
2022/04/15 08:56:32;;;;;;;5.60;5.10;;;9.70;99.90;;;;;;5082287;28;20203;-57
2022/04/15 08:58:58;;;;;;;0.73;0.73;;;9.50;99.90;;;;;;5084483;28;20552;-58
2022/04/15 09:01:24;;;;;;;4.53;4.23;;;9.50;99.90;;;;;;5082159;28;20201;-57
2022/04/15 09:03:51;;;;;;;0.30;0.30;;;9.50;99.90;;;;;;5084701;28;20186;-59
2022/04/15 09:06:17;;;;;;;7.00;4.27;;;9.50;99.90;;;;;;5083015;28;20304;-58
2022/04/15 09:09:08;;;;;;;2.47;2.10;;;9.60;99.90;;;;;;5085043;28;20722;-56
2022/04/15 09:11:36;;;;;;;1.80;1.70;;;9.60;99.90;;;;;;5082948;28;20233;-57
2022/04/15 09:14:06;;;;;;;1.43;1.43;;;9.70;99.90;;;;;;5084848;28;20277;-58
2022/04/15 09:16:37;;;;;;;11.60;4.77;;;9.70;99.90;;;;;;5081968;28;20206;-57
2022/04/15 09:19:04;;;;;;;1.97;1.90;;;9.80;99.90;;;;;;5066607;28;20646;-56
2022/04/15 09:21:30;;;;;;;5.27;4.73;;;9.70;99.90;;;;;;5083132;28;20636;-57
2022/04/15 09:23:56;;;;;;;5.43;4.93;;;9.70;99.90;;;;;;5088280;28;20207;-57
2022/04/15 09:26:22;;;;;;;1.83;1.27;;;9.40;99.90;;;;;;5086285;28;20225;-58
2022/04/15 09:28:48;;;;;;;3.13;2.83;;;9.30;99.90;;;;;;5087903;28;20220;-56
2022/04/15 09:31:16;;;;;;;3.00;2.90;;;9.30;99.90;;;;;;5086454;28;20248;-58
2022/04/15 09:33:55;;;;;;;0.53;0.53;;;9.20;99.90;;;;;;5087846;28;20199;-57
2022/04/15 09:36:24;;;;;;;5.10;3.83;;;9.30;99.90;;;;;;5085583;28;20206;-58
2022/04/15 09:38:54;;;;;;;2.80;2.60;;;9.30;99.90;;;;;;5072931;28;20221;-58
2022/04/15 09:41:25;;;;;;;4.33;2.33;;;9.30;99.90;;;;;;5086276;28;20202;-57
2022/04/15 09:43:55;;;;;;;5.77;5.37;;;9.30;99.90;;;;;;5087413;28;20671;-58
2022/04/15 09:46:20;;;;;;;0.70;0.70;;;9.30;99.90;;;;;;5084122;28;20220;-58
2022/04/15 09:49:01;;;;;;;6.57;5.97;;;9.20;99.90;;;;;;5076331;28;20557;-58
2022/04/15 09:51:33;;;;;;;3.67;3.53;;;9.20;99.90;;;;;;5085650;28;20204;-57
2022/04/15 09:54:01;;;;;;;3.73;3.23;;;9.20;99.90;;;;;;5077255;28;20672;-57
2022/04/15 09:56:31;;;;;;;6.27;2.67;;;9.10;99.90;;;;;;5085779;28;20309;-57
2022/04/15 09:59:05;;;;;;;6.70;5.93;;;9.10;99.90;;;;;;5087355;28;20240;-58
2022/04/15 10:01:32;;;;;;;11.00;4.67;;;9.10;99.90;;;;;;5085175;28;20435;-58
2022/04/15 10:03:59;;;;;;;3.70;3.47;;;9.00;99.90;;;;;;5087594;28;20223;-57
2022/04/15 10:06:27;;;;;;;2.43;2.27;;;9.00;99.90;;;;;;5085706;28;20202;-56
2022/04/15 10:08:53;;;;;;;5.67;5.20;;;9.10;99.90;;;;;;5087536;28;20688;-56
2022/04/15 10:11:19;;;;;;;4.93;3.23;;;9.10;99.90;;;;;;5085399;28;20194;-57
2022/04/15 10:13:45;;;;;;;1.83;1.73;;;9.10;99.90;;;;;;5072337;28;20260;-57
2022/04/15 10:16:12;;;;;;;2.63;1.60;;;8.90;99.90;;;;;;5082555;28;20188;-57
2022/04/15 10:18:38;;;;;;;2.07;1.90;;;8.90;99.90;;;;;;5087479;28;20586;-56
2022/04/15 10:21:07;;;;;;;5.67;3.33;;;9.00;99.90;;;;;;5085353;28;20251;-57
2022/04/15 10:23:34;;;;;;;2.70;2.37;;;9.10;99.90;;;;;;5087031;28;20220;-57
2022/04/15 10:26:01;;;;;;;2.27;2.17;;;9.10;99.90;;;;;;5084915;28;20931;-57
2022/04/15 10:28:44;;;;;;;1.40;1.30;;;9.10;99.90;;;;;;5087325;28;20187;-57
2022/04/15 10:31:12;;;;;;;4.97;3.67;;;9.10;99.90;;;;;;5066863;28;20194;-57
2022/04/15 10:33:39;;;;;;;1.80;1.70;;;9.10;99.90;;;;;;5085818;28;20258;-57
2022/04/15 10:36:24;;;;;;;3.63;3.33;;;9.10;99.90;;;;;;5085391;28;20254;-58
2022/04/15 10:39:09;;;;;;;5.07;4.67;;;9.00;99.90;;;;;;5086855;28;20664;-57
2022/04/15 10:41:46;;;;;;;0.10;0.10;;;9.10;99.90;;;;;;5085422;28;20215;-56
2022/04/15 10:44:31;;;;;;;16.63;5.87;;;9.00;99.90;;;;;;5075544;28;20194;-58
2022/04/15 10:47:27;;;;;;;3.20;2.90;;;9.00;99.90;;;;;;5087228;28;20186;-59
2022/04/15 10:50:06;;;;;;;2.63;2.43;;;9.00;99.90;;;;;;5083103;28;20202;-57
2022/04/15 10:52:34;;;;;;;5.63;2.77;;;9.20;99.90;;;;;;5085251;28;20613;-57
2022/04/15 10:55:03;;;;;;;7.03;4.30;;;9.30;99.90;;;;;;5084693;28;20207;-57
2022/04/15 10:57:33;;;;;;;1.60;1.50;;;9.40;99.90;;;;;;5086473;28;20898;-58
2022/04/15 11:02:46;;;;;;;0.53;0.53;;;9.40;99.90;;;;;;5086935;28;20232;-57
2022/04/15 11:05:13;;;;;;;1.97;1.20;;;9.70;99.90;;;;;;5084809;28;20306;-57
2022/04/15 11:07:58;;;;;;;4.50;3.70;;;9.70;99.90;;;;;;5086464;28;20193;-58
2022/04/15 11:10:42;;;;;;;2.17;2.07;;;9.70;99.90;;;;;;5075012;28;20199;-56
2022/04/15 11:13:29;;;;;;;1.43;1.33;;;9.60;99.90;;;;;;5086604;28;20193;-58
2022/04/15 11:16:04;;;;;;;2.27;2.17;;;9.70;99.90;;;;;;5084111;28;20223;-56
2022/04/15 11:18:43;;;;;;;1.30;1.30;;;9.80;99.90;;;;;;5086376;28;20197;-57
2022/04/15 11:21:20;;;;;;;1.33;1.23;;;9.80;99.90;;;;;;5081284;28;20228;-57
2022/04/15 11:23:50;;;;;;;0.30;0.30;;;9.70;99.90;;;;;;5086342;28;20710;-57
2022/04/15 11:26:16;;;;;;;1.23;1.13;;;9.70;99.90;;;;;;5081289;28;20239;-57
2022/04/15 11:28:47;;;;;;;0.63;0.63;;;9.80;99.90;;;;;;5086094;28;20259;-57
2022/04/15 11:31:32;;;;;;;0.20;0.20;;;9.80;99.90;;;;;;5083847;28;20200;-57
2022/04/15 11:34:10;;;;;;;0.63;0.63;;;9.90;99.90;;;;;;5075434;28;20191;-59
2022/04/15 11:36:37;;;;;;;1.77;0.73;;;9.90;99.90;;;;;;5085818;28;20244;-57
2022/04/15 11:39:05;;;;;;;0.77;0.77;;;10.00;99.90;;;;;;5085859;28;20202;-59
2022/04/15 11:41:31;;;;;;;0.30;0.30;;;10.10;99.90;;;;;;5083790;28;20291;-59
2022/04/15 11:44:01;;;;;;;1.90;1.80;;;10.20;99.90;;;;;;5085635;28;20295;-63
2022/04/15 11:46:36;;;;;;;0.20;0.20;;;10.20;99.90;;;;;;5083632;28;20251;-67
2022/04/15 11:49:22;;;;;;;0.10;0.10;;;10.00;99.90;;;;;;5084044;28;20282;-67
2022/04/15 11:51:59;;;;;;;0.30;0.30;;;10.00;99.90;;;;;;5083708;28;20183;-66
2022/04/15 11:54:35;;;;;;;0.67;0.60;;;10.00;99.90;;;;;;5080453;28;20189;-70
2022/04/15 11:57:03;;;;;;;0.30;0.30;;;9.90;99.90;;;;;;5084935;28;20190;-70
2022/04/15 11:59:36;;;;;;;0.97;0.97;;;10.00;99.90;;;;;;5082204;28;20196;-69
2022/04/15 12:02:01;;;;;;;0.10;0.10;;;10.00;99.90;;;;;;5084880;28;20401;-69
2022/04/15 12:04:27;;;;;;;0.50;0.50;;;10.00;99.90;;;;;;5081958;28;20209;-69
2022/04/15 12:06:52;;;;;;;0.50;0.50;;;10.00;99.90;;;;;;5085617;28;20648;-68
2022/04/15 12:09:18;;;;;;;0.20;0.20;;;10.00;99.90;;;;;;5083377;28;20257;-71
2022/04/15 12:11:43;;;;;;;0.60;0.60;;;10.00;99.90;;;;;;5084797;28;20227;-69
2022/04/15 12:14:09;;;;;;;0.60;0.60;;;10.00;99.90;;;;;;5085397;28;20198;-68
2022/04/15 12:16:39;;;;;;;0.23;0.23;;;10.00;99.90;;;;;;5084165;28;20372;-69
2022/04/15 12:19:05;;;;;;;3.33;3.10;;;10.10;99.90;;;;;;5085574;28;20211;-69
2022/04/15 12:21:31;;;;;;;0.30;0.30;;;10.00;99.90;;;;;;5083916;28;20791;-70
2022/04/15 12:24:02;;;;;;;0.23;0.23;;;9.90;99.90;;;;;;5085607;28;20198;-69
2022/04/15 12:26:27;;;;;;;1.83;1.73;;;10.00;99.90;;;;;;5082970;28;20236;-69
2022/04/15 12:31:46;;;;;;;1.27;1.27;;;10.00;99.90;;;;;;5072840;28;20249;-69
2022/04/15 12:34:11;;;;;;;0.40;0.40;;;10.00;99.90;;;;;;5083541;28;20203;-68
2022/04/15 12:36:41;;;;;;;0.10;0.10;;;10.00;99.90;;;;;;5085118;28;20838;-68
2022/04/15 12:39:07;;;;;;;0.60;0.60;;;10.10;99.90;;;;;;5085004;28;20202;-61
2022/04/15 12:41:43;;;;;;;0.57;0.57;;;10.10;99.90;;;;;;5083191;28;20198;-62
2022/04/15 12:44:16;;;;;;;0.93;0.93;;;10.00;99.90;;;;;;5085097;28;20654;-64
2022/04/15 12:46:44;;;;;;;0.43;0.43;;;10.00;99.90;;;;;;5085730;28;20643;-64
2022/04/15 12:49:35;;;;;;;1.00;1.00;;;10.00;99.90;;;;;;5084204;28;20693;-63
2022/04/15 12:52:07;;;;;;;2.50;0.43;;;9.90;99.90;;;;;;5085145;28;20721;-64
2022/04/15 12:54:33;;;;;;;1.10;1.10;;;9.90;99.90;;;;;;5082282;28;20260;-64
2022/04/15 12:56:59;;;;;;;0.53;0.53;;;9.90;99.90;;;;;;5086506;28;20747;-63
2022/04/15 12:59:26;;;;;;;0.40;0.40;;;9.80;99.90;;;;;;5086754;28;20190;-64
2022/04/15 13:01:51;;;;;;;0.20;0.20;;;9.80;99.90;;;;;;5089128;28;20433;-63
2022/04/15 13:04:17;;;;;;;1.53;1.43;;;9.80;99.90;;;;;;5086805;28;20183;-63